createdAt,value
2018-09-25T00:00:31.057Z,26.50
2018-09-25T00:01:14.257Z,26.50
2018-09-25T00:01:57.465Z,26.50
2018-09-25T00:02:41.729Z,26.60
2018-09-25T00:03:25.106Z,26.60
2018-09-25T00:04:08.673Z,26.60
2018-09-25T00:04:53.432Z,26.60
2018-09-25T00:05:36.612Z,26.60
2018-09-25T00:06:19.874Z,26.60
2018-09-25T00:07:04.967Z,26.60
2018-09-25T00:07:48.299Z,26.60
2018-09-25T00:08:31.882Z,26.60
2018-09-25T00:09:17.876Z,26.60
2018-09-25T00:10:01.219Z,26.60
2018-09-25T00:10:44.030Z,26.60
2018-09-25T00:11:27.579Z,26.60
2018-09-25T00:12:10.636Z,26.60
2018-09-25T00:12:55.017Z,26.60
2018-09-25T00:13:39.500Z,26.60
2018-09-25T00:14:22.442Z,26.60
2018-09-25T00:15:05.846Z,26.70
2018-09-25T00:15:49.828Z,26.70
2018-09-25T00:16:33.134Z,26.60
2018-09-25T00:17:15.975Z,26.70
2018-09-25T00:17:59.042Z,26.70
2018-09-25T00:18:42.233Z,26.70
2018-09-25T00:19:25.071Z,26.70
2018-09-25T00:20:09.482Z,26.70
2018-09-25T00:20:51.974Z,26.70
2018-09-25T00:21:34.965Z,26.70
2018-09-25T00:22:19.413Z,26.70
2018-09-25T00:23:01.813Z,26.80
2018-09-25T00:23:46.453Z,26.90
2018-09-25T00:24:28.913Z,26.90
2018-09-25T00:25:12.322Z,26.90
2018-09-25T00:25:55.668Z,27.00
2018-09-25T00:26:38.169Z,27.00
2018-09-25T00:27:20.201Z,27.00
2018-09-25T00:28:02.976Z,27.10
2018-09-25T00:28:45.845Z,27.10
2018-09-25T00:29:28.499Z,27.10
2018-09-25T00:30:12.188Z,27.10
2018-09-25T00:30:54.842Z,27.10
2018-09-25T00:31:37.492Z,27.10
2018-09-25T00:32:20.200Z,27.20
2018-09-25T00:33:02.595Z,27.20
2018-09-25T00:33:45.811Z,27.20
2018-09-25T00:34:28.874Z,27.20
2018-09-25T00:35:11.130Z,27.20
2018-09-25T00:35:53.774Z,27.20
2018-09-25T00:36:36.248Z,27.20
2018-09-25T00:37:21.032Z,27.20
2018-09-25T00:38:03.732Z,27.30
2018-09-25T00:38:47.094Z,27.30
2018-09-25T00:39:30.564Z,27.30
2018-09-25T00:40:12.791Z,27.30
2018-09-25T00:40:56.424Z,27.30
2018-09-25T00:41:40.012Z,27.30
2018-09-25T00:42:22.638Z,27.30
2018-09-25T00:43:05.850Z,27.30
2018-09-25T00:43:50.018Z,27.30
2018-09-25T00:44:33.711Z,27.30
2018-09-25T00:45:18.524Z,27.30
2018-09-25T00:46:00.811Z,27.30
2018-09-25T00:46:44.266Z,27.30
2018-09-25T00:47:26.576Z,27.30
2018-09-25T00:48:09.963Z,27.30
2018-09-25T00:48:52.092Z,27.30
2018-09-25T00:49:35.058Z,27.30
2018-09-25T00:50:17.513Z,27.30
2018-09-25T00:51:00.717Z,27.40
2018-09-25T00:51:44.604Z,27.40
2018-09-25T00:52:26.647Z,27.40
2018-09-25T00:53:10.659Z,27.40
2018-09-25T00:53:53.410Z,27.50
2018-09-25T00:54:35.834Z,27.60
2018-09-25T00:55:19.154Z,27.70
2018-09-25T00:56:01.908Z,27.90
2018-09-25T00:56:44.315Z,28.00
2018-09-25T00:57:26.662Z,28.10
2018-09-25T00:58:09.095Z,28.20
2018-09-25T00:58:51.445Z,28.30
2018-09-25T00:59:34.088Z,28.40
2018-09-25T01:00:16.634Z,28.40
2018-09-25T01:00:58.762Z,28.40
2018-09-25T01:01:41.083Z,28.40
2018-09-25T01:02:23.218Z,28.40
2018-09-25T01:03:05.149Z,28.50
2018-09-25T01:03:47.279Z,28.50
2018-09-25T01:04:29.516Z,28.50
2018-09-25T01:05:11.748Z,28.50
2018-09-25T01:05:53.651Z,28.60
2018-09-25T01:06:35.708Z,28.60
2018-09-25T01:07:17.623Z,28.70
2018-09-25T01:07:59.634Z,28.80
2018-09-25T01:08:41.823Z,28.70
2018-09-25T01:09:24.304Z,28.60
2018-09-25T01:10:06.712Z,28.60
2018-09-25T01:10:49.659Z,28.70
2018-09-25T01:11:32.834Z,28.60
2018-09-25T01:12:15.194Z,28.60
2018-09-25T01:12:57.175Z,28.60
2018-09-25T01:13:39.167Z,28.60
2018-09-25T01:14:21.075Z,28.50
2018-09-25T01:15:03.478Z,28.40
2018-09-25T01:15:45.382Z,28.40
2018-09-25T01:16:27.432Z,28.40
2018-09-25T01:17:09.491Z,28.40
2018-09-25T01:17:51.653Z,28.30
2018-09-25T01:18:33.807Z,28.30
2018-09-25T01:19:15.986Z,28.30
2018-09-25T01:19:58.224Z,28.30
2018-09-25T01:20:40.572Z,28.30
2018-09-25T01:21:22.865Z,28.30
2018-09-25T01:22:04.671Z,28.20
2018-09-25T01:22:46.571Z,28.20
2018-09-25T01:23:28.616Z,28.20
2018-09-25T01:24:11.616Z,28.20
2018-09-25T01:24:53.501Z,28.10
2018-09-25T01:25:36.178Z,28.20
2018-09-25T01:26:18.325Z,28.10
2018-09-25T01:27:00.290Z,28.10
2018-09-25T01:27:42.414Z,28.10
2018-09-25T01:28:24.329Z,28.20
2018-09-25T01:29:06.448Z,28.10
2018-09-25T01:29:48.643Z,28.10
2018-09-25T01:30:30.852Z,28.10
2018-09-25T01:31:13.191Z,28.10
2018-09-25T01:31:55.172Z,28.10
2018-09-25T01:32:37.274Z,28.10
2018-09-25T01:33:20.345Z,28.10
2018-09-25T01:34:02.383Z,28.00
2018-09-25T01:34:44.416Z,28.00
2018-09-25T01:35:26.734Z,28.00
2018-09-25T01:36:08.964Z,28.00
2018-09-25T01:36:51.051Z,28.00
2018-09-25T01:37:33.306Z,28.00
2018-09-25T01:38:15.320Z,28.00
2018-09-25T01:38:57.423Z,28.00
2018-09-25T01:39:39.474Z,28.00
2018-09-25T01:40:21.412Z,27.90
2018-09-25T01:41:03.354Z,27.90
2018-09-25T01:41:45.678Z,27.90
2018-09-25T01:42:27.652Z,27.90
2018-09-25T01:43:09.774Z,27.80
2018-09-25T01:43:51.647Z,27.80
2018-09-25T01:44:33.667Z,27.80
2018-09-25T01:45:16.653Z,27.70
2018-09-25T01:45:58.616Z,27.70
2018-09-25T01:46:40.728Z,27.70
2018-09-25T01:47:23.809Z,27.70
2018-09-25T01:48:06.845Z,27.70
2018-09-25T01:48:48.845Z,27.70
2018-09-25T01:49:30.848Z,27.70
2018-09-25T01:50:12.923Z,27.70
2018-09-25T01:50:55.110Z,27.70
2018-09-25T01:51:37.675Z,27.70
2018-09-25T01:52:20.715Z,27.70
2018-09-25T01:53:03.818Z,27.70
2018-09-25T01:53:45.686Z,27.70
2018-09-25T01:54:28.104Z,27.70
2018-09-25T01:55:10.270Z,27.70
2018-09-25T01:55:52.750Z,27.60
2018-09-25T01:56:36.539Z,27.70
2018-09-25T01:57:18.475Z,27.60
2018-09-25T01:58:01.075Z,27.60
2018-09-25T01:58:43.066Z,27.60
2018-09-25T01:59:25.154Z,27.60
2018-09-25T02:00:07.853Z,27.60
2018-09-25T02:00:50.273Z,27.60
2018-09-25T02:01:33.337Z,27.60
2018-09-25T02:02:16.509Z,27.70
2018-09-25T02:02:58.729Z,27.60
2018-09-25T02:03:42.291Z,27.60
2018-09-25T02:04:24.308Z,27.60
2018-09-25T02:05:06.201Z,27.60
2018-09-25T02:05:49.215Z,27.60
2018-09-25T02:06:31.274Z,27.60
2018-09-25T02:07:13.463Z,27.60
2018-09-25T02:07:56.623Z,27.60
2018-09-25T02:08:39.034Z,27.60
2018-09-25T02:09:21.532Z,27.60
2018-09-25T02:10:04.841Z,27.70
2018-09-25T02:10:46.873Z,27.70
2018-09-25T02:11:29.327Z,27.70
2018-09-25T02:12:11.702Z,27.60
2018-09-25T02:12:54.970Z,27.60
2018-09-25T02:13:37.040Z,27.70
2018-09-25T02:14:19.428Z,27.70
2018-09-25T02:15:01.724Z,27.70
2018-09-25T02:15:45.129Z,27.60
2018-09-25T02:16:27.349Z,27.60
2018-09-25T02:17:09.728Z,27.70
2018-09-25T02:17:51.798Z,27.60
2018-09-25T02:18:33.912Z,27.60
2018-09-25T02:19:16.018Z,27.70
2018-09-25T02:19:58.172Z,27.70
2018-09-25T02:20:40.180Z,27.70
2018-09-25T02:21:22.310Z,27.70
2018-09-25T02:22:04.378Z,27.70
2018-09-25T02:22:49.435Z,27.70
2018-09-25T02:23:31.488Z,27.70
2018-09-25T02:24:13.586Z,27.70
2018-09-25T02:24:55.711Z,27.70
2018-09-25T02:25:37.769Z,27.70
2018-09-25T02:26:20.613Z,27.70
2018-09-25T02:27:02.545Z,27.70
2018-09-25T02:27:44.446Z,27.70
2018-09-25T02:28:26.708Z,27.70
2018-09-25T02:29:09.005Z,27.70
2018-09-25T02:29:51.467Z,27.70
2018-09-25T02:30:33.366Z,27.70
2018-09-25T02:31:15.578Z,27.70
2018-09-25T02:31:57.819Z,27.70
2018-09-25T02:32:39.768Z,27.70
2018-09-25T02:33:22.187Z,27.70
2018-09-25T02:34:04.221Z,27.70
2018-09-25T02:34:46.214Z,27.70
2018-09-25T02:35:28.193Z,27.70
2018-09-25T02:36:10.162Z,27.70
2018-09-25T02:36:52.347Z,27.70
2018-09-25T02:37:34.522Z,27.70
2018-09-25T02:38:16.501Z,27.70
2018-09-25T02:38:58.754Z,27.70
2018-09-25T02:39:40.914Z,27.70
2018-09-25T02:40:23.191Z,27.70
2018-09-25T02:41:05.242Z,27.70
2018-09-25T02:41:47.224Z,27.70
2018-09-25T02:42:29.194Z,27.80
2018-09-25T02:43:11.152Z,27.80
2018-09-25T02:43:53.313Z,27.80
2018-09-25T02:44:35.214Z,27.80
2018-09-25T02:45:17.725Z,27.80
2018-09-25T02:45:59.733Z,27.80
2018-09-25T02:46:41.777Z,27.80
2018-09-25T02:47:23.817Z,27.80
2018-09-25T02:48:06.074Z,27.80
2018-09-25T02:48:48.279Z,27.80
2018-09-25T02:49:30.404Z,27.80
2018-09-25T02:50:12.521Z,27.80
2018-09-25T02:50:54.667Z,27.80
2018-09-25T02:51:36.788Z,27.80
2018-09-25T02:52:18.839Z,27.80
2018-09-25T02:53:00.950Z,27.80
2018-09-25T02:53:43.452Z,27.80
2018-09-25T02:54:25.639Z,27.80
2018-09-25T02:55:07.602Z,27.80
2018-09-25T02:55:49.523Z,27.80
2018-09-25T02:56:31.660Z,27.80
2018-09-25T02:57:13.703Z,27.80
2018-09-25T02:57:55.826Z,27.80
2018-09-25T02:58:38.061Z,27.80
2018-09-25T02:59:20.077Z,27.90
2018-09-25T03:00:01.992Z,28.00
2018-09-25T03:00:44.328Z,28.10
2018-09-25T03:01:26.867Z,28.10
2018-09-25T03:02:09.790Z,28.10
2018-09-25T03:02:52.152Z,28.20
2018-09-25T03:03:34.853Z,28.20
2018-09-25T03:04:16.962Z,28.20
2018-09-25T03:04:59.075Z,28.20
2018-09-25T03:05:41.604Z,28.10
2018-09-25T03:06:23.847Z,28.10
2018-09-25T03:07:05.830Z,28.10
2018-09-25T03:07:47.935Z,28.00
2018-09-25T03:08:30.187Z,28.10
2018-09-25T03:09:14.209Z,28.10
2018-09-25T03:09:56.345Z,28.00
2018-09-25T03:10:38.350Z,28.00
2018-09-25T03:11:20.271Z,28.00
2018-09-25T03:12:02.192Z,28.00
2018-09-25T03:12:44.187Z,28.00
2018-09-25T03:13:26.282Z,28.00
2018-09-25T03:14:08.381Z,28.00
2018-09-25T03:14:50.346Z,28.00
2018-09-25T03:15:32.711Z,28.00
2018-09-25T03:16:15.804Z,28.00
2018-09-25T03:16:57.942Z,28.00
2018-09-25T03:17:39.927Z,28.00
2018-09-25T03:18:21.905Z,28.00
2018-09-25T03:19:03.890Z,28.00
2018-09-25T03:19:45.847Z,28.00
2018-09-25T03:20:28.791Z,28.00
2018-09-25T03:21:10.844Z,28.00
2018-09-25T03:21:53.104Z,28.00
2018-09-25T03:22:35.181Z,28.00
2018-09-25T03:23:18.082Z,28.00
2018-09-25T03:24:00.121Z,28.00
2018-09-25T03:24:42.198Z,28.00
2018-09-25T03:25:24.412Z,28.00
2018-09-25T03:26:06.365Z,28.00
2018-09-25T03:26:48.298Z,28.00
2018-09-25T03:27:30.235Z,28.00
2018-09-25T03:28:13.173Z,28.00
2018-09-25T03:28:56.440Z,28.00
2018-09-25T03:30:43.812Z,28.00
2018-09-25T03:31:27.279Z,28.00
2018-09-25T03:32:09.296Z,28.00
2018-09-25T03:32:51.437Z,28.00
2018-09-25T03:33:33.767Z,28.00
2018-09-25T03:34:15.862Z,28.00
2018-09-25T03:34:57.914Z,28.00
2018-09-25T03:35:39.814Z,28.00
2018-09-25T03:36:21.714Z,28.00
2018-09-25T03:37:04.091Z,28.00
2018-09-25T03:37:46.084Z,28.00
2018-09-25T03:38:28.012Z,28.00
2018-09-25T03:39:10.954Z,28.00
2018-09-25T03:39:52.977Z,28.00
2018-09-25T03:40:35.037Z,28.00
2018-09-25T03:41:17.291Z,28.00
2018-09-25T03:41:59.299Z,28.00
2018-09-25T03:42:41.253Z,28.00
2018-09-25T03:43:23.214Z,28.00
2018-09-25T03:44:05.279Z,28.00
2018-09-25T03:44:47.282Z,28.00
2018-09-25T03:45:29.231Z,28.00
2018-09-25T03:46:11.279Z,28.00
2018-09-25T03:46:53.456Z,28.00
2018-09-25T03:47:35.403Z,28.00
2018-09-25T03:48:17.405Z,28.00
2018-09-25T03:48:59.461Z,28.00
2018-09-25T03:49:41.482Z,28.00
2018-09-25T03:50:23.480Z,28.00
2018-09-25T03:51:05.920Z,28.00
2018-09-25T03:51:48.015Z,28.00
2018-09-25T03:52:30.122Z,28.00
2018-09-25T03:53:13.174Z,28.00
2018-09-25T03:53:55.149Z,28.00
2018-09-25T03:55:39.585Z,28.00
2018-09-25T03:56:21.844Z,28.10
2018-09-25T03:57:04.090Z,28.10
2018-09-25T03:57:46.177Z,28.10
2018-09-25T03:58:28.060Z,28.10
2018-09-25T03:59:10.487Z,28.10
2018-09-25T03:59:53.420Z,28.10
2018-09-25T04:00:35.351Z,28.10
2018-09-25T04:01:17.325Z,28.10
2018-09-25T04:01:59.231Z,28.10
2018-09-25T04:02:42.040Z,28.10
2018-09-25T04:03:24.114Z,28.10
2018-09-25T04:04:06.009Z,28.10
2018-09-25T04:04:47.975Z,28.10
2018-09-25T04:05:30.076Z,28.10
2018-09-25T04:06:13.240Z,28.10
2018-09-25T04:06:55.247Z,28.10
2018-09-25T04:07:37.684Z,28.10
2018-09-25T04:08:19.611Z,28.10
2018-09-25T04:09:01.903Z,28.10
2018-09-25T04:09:44.108Z,28.10
2018-09-25T04:10:26.065Z,28.10
2018-09-25T04:11:08.302Z,28.10
2018-09-25T04:11:50.958Z,28.10
2018-09-25T04:12:33.117Z,28.10
2018-09-25T04:13:13.965Z,28.10
2018-09-25T04:13:56.257Z,28.20
2018-09-25T04:14:38.182Z,28.20
2018-09-25T04:15:20.421Z,28.10
2018-09-25T04:16:02.727Z,28.20
2018-09-25T04:16:44.879Z,28.20
2018-09-25T04:17:26.845Z,28.20
2018-09-25T04:18:13.390Z,28.20
2018-09-25T04:18:55.555Z,28.20
2018-09-25T04:19:37.794Z,28.20
2018-09-25T04:20:25.859Z,28.20
2018-09-25T04:21:07.898Z,28.20
2018-09-25T04:21:49.880Z,28.20
2018-09-25T04:22:31.996Z,28.20
2018-09-25T04:23:14.105Z,28.20
2018-09-25T04:23:56.095Z,28.20
2018-09-25T04:24:38.132Z,28.20
2018-09-25T04:25:21.411Z,28.20
2018-09-25T04:26:03.495Z,28.20
2018-09-25T04:26:45.523Z,28.20
2018-09-25T04:27:27.983Z,28.20
2018-09-25T04:28:10.083Z,28.20
2018-09-25T04:28:52.066Z,28.20
2018-09-25T04:29:34.049Z,28.20
2018-09-25T04:30:17.015Z,28.20
2018-09-25T04:30:59.145Z,28.20
2018-09-25T04:31:41.271Z,28.20
2018-09-25T04:32:23.171Z,28.20
2018-09-25T04:33:06.056Z,28.20
2018-09-25T04:33:48.224Z,28.20
2018-09-25T04:34:31.339Z,28.20
2018-09-25T04:35:14.651Z,28.20
2018-09-25T04:35:56.832Z,28.20
2018-09-25T04:36:39.132Z,28.30
2018-09-25T04:37:21.146Z,28.20
2018-09-25T04:38:03.083Z,28.30
2018-09-25T04:38:45.161Z,28.30
2018-09-25T04:39:27.171Z,28.30
2018-09-25T04:40:09.362Z,28.30
2018-09-25T04:40:51.516Z,28.30
2018-09-25T04:41:33.683Z,28.30
2018-09-25T04:42:15.878Z,28.30
2018-09-25T04:42:57.772Z,28.30
2018-09-25T04:43:39.950Z,28.30
2018-09-25T04:44:22.212Z,28.30
2018-09-25T04:45:04.498Z,28.30
2018-09-25T04:45:46.429Z,28.30
2018-09-25T04:46:28.618Z,28.30
2018-09-25T04:47:10.509Z,28.30
2018-09-25T04:47:52.774Z,28.30
2018-09-25T04:48:34.791Z,28.30
2018-09-25T04:49:16.695Z,28.30
2018-09-25T04:49:58.657Z,28.30
2018-09-25T04:50:40.644Z,28.30
2018-09-25T04:51:22.590Z,28.30
2018-09-25T04:52:04.830Z,28.30
2018-09-25T04:52:46.930Z,28.30
2018-09-25T04:53:29.193Z,28.30
2018-09-25T04:54:11.219Z,28.40
2018-09-25T04:54:53.191Z,28.40
2018-09-25T04:55:35.438Z,28.40
2018-09-25T04:56:17.399Z,28.30
2018-09-25T04:56:59.334Z,28.40
2018-09-25T04:57:42.323Z,28.40
2018-09-25T04:58:24.275Z,28.40
2018-09-25T04:59:07.422Z,28.40
2018-09-25T04:59:49.498Z,28.40
2018-09-25T05:00:31.573Z,28.40
2018-09-25T05:01:13.722Z,28.40
2018-09-25T05:01:55.888Z,28.40
2018-09-25T05:02:37.918Z,28.40
2018-09-25T05:03:20.248Z,28.40
2018-09-25T05:04:02.513Z,28.40
2018-09-25T05:04:44.805Z,28.40
2018-09-25T05:05:27.064Z,28.40
2018-09-25T05:06:09.496Z,28.40
2018-09-25T05:06:51.698Z,28.40
2018-09-25T05:07:33.546Z,28.40
2018-09-25T05:08:15.488Z,28.40
2018-09-25T05:08:57.432Z,28.40
2018-09-25T05:09:39.393Z,28.40
2018-09-25T05:10:21.754Z,28.40
2018-09-25T05:11:03.844Z,28.40
2018-09-25T05:11:45.781Z,28.40
2018-09-25T05:12:28.742Z,28.40
2018-09-25T05:13:10.720Z,28.40
2018-09-25T05:13:52.713Z,28.40
2018-09-25T05:14:34.816Z,28.40
2018-09-25T05:15:17.155Z,28.40
2018-09-25T05:15:59.242Z,28.40
2018-09-25T05:16:41.302Z,28.40
2018-09-25T05:17:23.481Z,28.50
2018-09-25T05:18:06.511Z,28.50
2018-09-25T05:18:48.514Z,28.40
2018-09-25T05:19:30.611Z,28.50
2018-09-25T05:20:12.572Z,28.50
2018-09-25T05:20:54.521Z,28.50
2018-09-25T05:21:36.530Z,28.50
2018-09-25T05:22:18.651Z,28.50
2018-09-25T05:23:01.918Z,28.50
2018-09-25T05:23:43.969Z,28.50
2018-09-25T05:24:26.114Z,28.50
2018-09-25T05:25:08.171Z,28.50
2018-09-25T05:25:50.332Z,28.50
2018-09-25T05:26:32.377Z,28.50
2018-09-25T05:27:14.590Z,28.50
2018-09-25T05:27:57.559Z,28.50
2018-09-25T05:28:39.651Z,28.50
2018-09-25T05:29:21.820Z,28.50
2018-09-25T05:30:03.841Z,28.50
2018-09-25T05:30:46.084Z,28.50
2018-09-25T05:31:28.952Z,28.50
2018-09-25T05:32:11.038Z,28.50
2018-09-25T05:32:53.329Z,28.50
2018-09-25T05:33:35.684Z,28.50
2018-09-25T05:34:17.758Z,28.60
2018-09-25T05:35:00.057Z,28.60
2018-09-25T05:35:41.963Z,28.70
2018-09-25T05:36:24.007Z,28.70
2018-09-25T05:37:06.284Z,28.70
2018-09-25T05:37:48.504Z,28.70
2018-09-25T05:38:30.458Z,28.70
2018-09-25T05:39:14.293Z,28.70
2018-09-25T05:39:56.266Z,28.70
2018-09-25T05:40:38.643Z,28.80
2018-09-25T05:41:20.775Z,28.80
2018-09-25T05:42:02.903Z,28.80
2018-09-25T05:42:44.877Z,28.80
2018-09-25T05:43:26.950Z,28.80
2018-09-25T05:44:08.970Z,28.80
2018-09-25T05:44:50.927Z,28.80
2018-09-25T05:45:32.943Z,28.80
2018-09-25T05:46:14.915Z,28.80
2018-09-25T05:46:56.992Z,28.80
2018-09-25T05:47:38.972Z,28.80
2018-09-25T05:48:21.076Z,28.80
2018-09-25T05:49:05.143Z,28.80
2018-09-25T05:49:47.403Z,28.70
2018-09-25T05:50:29.571Z,28.70
2018-09-25T05:51:11.453Z,28.80
2018-09-25T05:51:53.370Z,28.80
2018-09-25T05:52:35.428Z,28.70
2018-09-25T05:53:18.009Z,28.70
2018-09-25T05:53:59.990Z,28.70
2018-09-25T05:54:41.991Z,28.70
2018-09-25T05:55:24.043Z,28.70
2018-09-25T05:56:06.139Z,28.70
2018-09-25T05:56:48.171Z,28.70
2018-09-25T05:57:30.462Z,28.70
2018-09-25T05:58:12.545Z,28.70
2018-09-25T05:58:54.857Z,28.70
2018-09-25T05:59:37.358Z,28.70
2018-09-25T06:00:20.428Z,28.70
2018-09-25T06:01:02.494Z,28.70
2018-09-25T06:01:44.617Z,28.70
2018-09-25T06:02:26.739Z,28.70
2018-09-25T06:03:08.901Z,28.70
2018-09-25T06:03:51.002Z,28.70
2018-09-25T06:04:32.986Z,28.70
2018-09-25T06:05:15.304Z,28.70
2018-09-25T06:05:57.393Z,28.70
2018-09-25T06:06:40.336Z,28.70
2018-09-25T06:07:22.208Z,28.70
2018-09-25T06:08:04.211Z,28.70
2018-09-25T06:08:46.371Z,28.70
2018-09-25T06:09:28.274Z,28.70
2018-09-25T06:10:10.201Z,28.70
2018-09-25T06:10:52.299Z,28.70
2018-09-25T06:11:34.226Z,28.70
2018-09-25T06:12:16.533Z,28.70
2018-09-25T06:12:59.891Z,28.70
2018-09-25T06:13:41.984Z,28.70
2018-09-25T06:14:24.077Z,28.70
2018-09-25T06:15:06.160Z,28.70
2018-09-25T06:15:48.362Z,28.70
2018-09-25T06:16:30.759Z,28.70
2018-09-25T06:17:12.635Z,28.70
2018-09-25T06:17:54.610Z,28.80
2018-09-25T06:18:36.671Z,28.70
2018-09-25T06:19:18.698Z,28.80
2018-09-25T06:20:00.629Z,28.70
2018-09-25T06:20:42.590Z,28.70
2018-09-25T06:21:24.958Z,28.70
2018-09-25T06:22:06.988Z,28.80
2018-09-25T06:22:49.129Z,28.80
2018-09-25T06:23:31.382Z,28.80
2018-09-25T06:24:13.410Z,28.80
2018-09-25T06:24:55.512Z,28.80
2018-09-25T06:25:38.687Z,28.80
2018-09-25T06:26:21.030Z,28.80
2018-09-25T06:27:03.883Z,28.80
2018-09-25T06:27:45.893Z,28.80
2018-09-25T06:28:28.089Z,28.80
2018-09-25T06:29:10.054Z,28.80
2018-09-25T06:29:52.182Z,28.80
2018-09-25T06:30:34.390Z,28.80
2018-09-25T06:31:16.299Z,28.80
2018-09-25T06:31:58.341Z,28.80
2018-09-25T06:32:40.335Z,28.80
2018-09-25T06:33:22.392Z,28.80
2018-09-25T06:34:04.405Z,28.80
2018-09-25T06:34:46.885Z,28.80
2018-09-25T06:35:28.934Z,28.80
2018-09-25T06:36:11.268Z,28.80
2018-09-25T06:36:53.440Z,28.80
2018-09-25T06:37:35.527Z,28.80
2018-09-25T06:38:17.810Z,28.80
2018-09-25T06:38:59.963Z,28.80
2018-09-25T06:39:42.056Z,28.80
2018-09-25T06:40:24.218Z,28.80
2018-09-25T06:41:06.496Z,28.80
2018-09-25T06:41:48.705Z,28.90
2018-09-25T06:42:30.662Z,28.80
2018-09-25T06:43:12.685Z,28.90
2018-09-25T06:43:55.705Z,28.90
2018-09-25T06:44:37.863Z,28.90
2018-09-25T06:45:19.829Z,28.90
2018-09-25T06:46:01.891Z,28.90
2018-09-25T06:46:43.897Z,28.80
2018-09-25T06:47:26.984Z,28.90
2018-09-25T06:48:08.986Z,28.90
2018-09-25T06:48:51.205Z,28.80
2018-09-25T06:49:33.554Z,28.80
2018-09-25T06:50:15.626Z,28.90
2018-09-25T06:50:58.485Z,28.90
2018-09-25T06:51:40.659Z,28.90
2018-09-25T06:52:22.962Z,28.90
2018-09-25T06:53:05.247Z,28.90
2018-09-25T06:53:47.307Z,28.90
2018-09-25T06:54:29.425Z,28.90
2018-09-25T06:55:11.591Z,28.90
2018-09-25T06:55:54.847Z,28.90
2018-09-25T06:56:37.161Z,28.90
2018-09-25T06:57:19.263Z,28.90
2018-09-25T06:58:01.271Z,28.90
2018-09-25T06:58:43.241Z,28.90
2018-09-25T06:59:26.389Z,28.90
2018-09-25T07:00:08.683Z,28.90
2018-09-25T07:00:50.545Z,28.90
2018-09-25T07:01:33.493Z,28.90
2018-09-25T07:02:15.579Z,28.90
2018-09-25T07:02:58.491Z,28.90
2018-09-25T07:03:40.530Z,28.90
2018-09-25T07:04:22.642Z,28.90
2018-09-25T07:05:04.808Z,28.90
2018-09-25T07:05:46.797Z,28.90
2018-09-25T07:06:28.935Z,28.90
2018-09-25T07:07:10.986Z,28.90
2018-09-25T07:07:53.118Z,28.90
2018-09-25T07:08:35.161Z,28.90
2018-09-25T07:09:17.250Z,28.90
2018-09-25T07:10:00.215Z,28.90
2018-09-25T07:10:42.613Z,28.90
2018-09-25T07:11:24.963Z,28.90
2018-09-25T07:12:08.031Z,28.90
2018-09-25T07:12:50.078Z,28.90
2018-09-25T07:13:32.027Z,28.90
2018-09-25T07:14:14.066Z,28.90
2018-09-25T07:14:56.223Z,29.00
2018-09-25T07:15:38.362Z,28.90
2018-09-25T07:16:22.544Z,28.90
2018-09-25T07:17:04.495Z,28.90
2018-09-25T07:17:46.585Z,28.90
2018-09-25T07:18:28.886Z,29.00
2018-09-25T07:19:11.031Z,28.90
2018-09-25T07:19:53.130Z,29.00
2018-09-25T07:20:35.207Z,29.00
2018-09-25T07:21:17.590Z,29.00
2018-09-25T07:21:59.789Z,29.00
2018-09-25T07:22:41.874Z,29.00
2018-09-25T07:23:24.711Z,28.90
2018-09-25T07:24:06.798Z,29.00
2018-09-25T07:24:49.084Z,29.00
2018-09-25T07:25:31.118Z,29.00
2018-09-25T07:26:13.852Z,29.00
2018-09-25T07:26:56.111Z,29.00
2018-09-25T07:27:37.998Z,29.00
2018-09-25T07:28:20.239Z,29.00
2018-09-25T07:29:02.526Z,29.00
2018-09-25T07:29:47.964Z,29.00
2018-09-25T07:30:31.070Z,29.00
2018-09-25T07:31:13.180Z,29.00
2018-09-25T07:31:55.129Z,29.00
2018-09-25T07:33:50.947Z,29.00
2018-09-25T07:34:33.422Z,29.00
2018-09-25T07:35:15.614Z,29.00
2018-09-25T07:35:57.554Z,29.00
2018-09-25T07:36:39.562Z,29.00
2018-09-25T07:37:21.451Z,29.00
2018-09-25T07:38:03.874Z,29.00
2018-09-25T07:38:46.094Z,29.00
2018-09-25T07:39:27.991Z,29.00
2018-09-25T07:40:09.971Z,29.00
2018-09-25T07:40:51.887Z,29.00
2018-09-25T07:41:34.745Z,29.00
2018-09-25T07:42:16.847Z,29.00
2018-09-25T07:42:58.963Z,29.00
2018-09-25T07:43:41.055Z,29.00
2018-09-25T07:44:23.927Z,29.00
2018-09-25T07:45:07.380Z,29.00
2018-09-25T07:45:49.499Z,29.00
2018-09-25T07:46:31.482Z,29.00
2018-09-25T07:47:13.570Z,29.10
2018-09-25T07:47:55.709Z,29.10
2018-09-25T07:48:37.986Z,29.10
2018-09-25T07:49:20.071Z,29.10
2018-09-25T07:50:02.515Z,29.10
2018-09-25T07:50:44.895Z,29.10
2018-09-25T07:51:26.961Z,29.10
2018-09-25T07:52:09.312Z,29.10
2018-09-25T07:52:51.290Z,29.10
2018-09-25T07:53:34.275Z,29.10
2018-09-25T07:54:16.262Z,29.10
2018-09-25T07:54:58.242Z,29.10
2018-09-25T07:55:41.424Z,29.10
2018-09-25T07:56:23.341Z,29.10
2018-09-25T07:57:05.324Z,29.10
2018-09-25T07:57:47.518Z,29.10
2018-09-25T07:58:29.361Z,29.10
2018-09-25T07:59:11.368Z,29.10
2018-09-25T07:59:53.657Z,29.10
2018-09-25T08:00:35.668Z,29.10
2018-09-25T08:01:17.595Z,29.10
2018-09-25T08:01:59.524Z,29.10
2018-09-25T08:02:41.865Z,29.10
2018-09-25T08:03:23.837Z,29.10
2018-09-25T08:04:05.834Z,29.10
2018-09-25T08:04:47.943Z,29.10
2018-09-25T08:05:30.049Z,29.10
2018-09-25T08:06:12.247Z,29.10
2018-09-25T08:06:54.197Z,29.10
2018-09-25T08:07:36.256Z,29.10
2018-09-25T08:08:18.838Z,29.10
2018-09-25T08:09:00.801Z,29.10
2018-09-25T08:09:42.799Z,29.10
2018-09-25T08:10:26.148Z,29.10
2018-09-25T08:11:08.071Z,29.10
2018-09-25T08:11:50.219Z,29.10
2018-09-25T08:12:32.340Z,29.10
2018-09-25T08:17:27.412Z,29.10
2018-09-25T08:18:09.357Z,29.10
2018-09-25T08:18:51.347Z,29.10
2018-09-25T08:19:33.478Z,29.10
2018-09-25T08:20:16.222Z,29.10
2018-09-25T08:20:58.253Z,29.10
2018-09-25T08:21:40.675Z,29.20
2018-09-25T08:22:22.924Z,29.10
2018-09-25T08:23:04.936Z,29.20
2018-09-25T08:23:46.978Z,29.20
2018-09-25T08:24:29.084Z,29.10
2018-09-25T08:25:11.083Z,29.10
2018-09-25T08:25:53.019Z,29.10
2018-09-25T08:26:34.947Z,29.20
2018-09-25T08:27:16.890Z,29.20
2018-09-25T08:27:58.965Z,29.20
2018-09-25T08:28:41.058Z,29.10
2018-09-25T08:29:23.285Z,29.20
2018-09-25T08:30:05.280Z,29.10
2018-09-25T08:30:47.503Z,29.20
2018-09-25T08:31:29.570Z,29.10
2018-09-25T08:32:12.605Z,29.20
2018-09-25T08:32:54.801Z,29.20
2018-09-25T08:33:37.962Z,29.20
2018-09-25T08:34:20.970Z,29.20
2018-09-25T08:35:03.130Z,29.20
2018-09-25T08:35:45.151Z,29.20
2018-09-25T08:36:27.201Z,29.20
2018-09-25T08:37:09.337Z,29.20
2018-09-25T08:37:51.451Z,29.20
2018-09-25T08:38:34.561Z,29.20
2018-09-25T08:39:17.756Z,29.20
2018-09-25T08:39:59.828Z,29.20
2018-09-25T08:40:41.901Z,29.20
2018-09-25T08:41:23.925Z,29.20
2018-09-25T08:42:05.858Z,29.20
2018-09-25T08:42:48.000Z,29.20
2018-09-25T08:43:30.377Z,29.20
2018-09-25T08:44:12.556Z,29.20
2018-09-25T08:44:54.607Z,29.20
2018-09-25T08:45:37.801Z,29.20
2018-09-25T08:46:20.607Z,29.20
2018-09-25T08:47:03.141Z,29.20
2018-09-25T08:47:45.198Z,29.20
2018-09-25T08:48:27.195Z,29.20
2018-09-25T08:49:09.691Z,29.20
2018-09-25T08:49:51.689Z,29.20
2018-09-25T08:50:33.640Z,29.20
2018-09-25T08:51:15.660Z,29.20
2018-09-25T08:51:57.717Z,29.20
2018-09-25T08:52:39.581Z,29.20
2018-09-25T08:53:21.513Z,29.20
2018-09-25T08:54:03.527Z,29.20
2018-09-25T08:54:45.477Z,29.20
2018-09-25T08:55:27.501Z,29.20
2018-09-25T08:56:09.652Z,29.20
2018-09-25T08:56:51.685Z,29.20
2018-09-25T08:57:34.630Z,29.20
2018-09-25T08:58:16.664Z,29.20
2018-09-25T08:58:58.756Z,29.20
2018-09-25T08:59:40.718Z,29.20
2018-09-25T09:00:23.170Z,29.20
2018-09-25T09:01:05.231Z,29.20
2018-09-25T09:01:47.390Z,29.20
2018-09-25T09:02:29.331Z,29.20
2018-09-25T09:03:11.355Z,29.20
2018-09-25T09:03:53.327Z,29.20
2018-09-25T09:04:35.220Z,29.20
2018-09-25T09:05:17.801Z,29.20
2018-09-25T09:05:59.632Z,29.30
2018-09-25T09:06:41.590Z,29.20
2018-09-25T09:07:23.614Z,29.20
2018-09-25T09:08:05.639Z,29.20
2018-09-25T09:08:47.605Z,29.20
2018-09-25T09:09:29.676Z,29.30
2018-09-25T09:10:11.866Z,29.20
2018-09-25T09:10:53.780Z,29.20
2018-09-25T09:11:35.928Z,29.20
2018-09-25T09:12:19.005Z,29.20
2018-09-25T09:13:01.007Z,29.30